createdAt,value
2022-08-12T00:00:04.519Z,60829.61
2022-08-12T00:01:07.934Z,60814.54
2022-08-12T00:02:10.884Z,60826.59
2022-08-12T00:03:14.858Z,60823.58
2022-08-12T00:04:18.832Z,60834.63
2022-08-12T00:05:22.003Z,60822.57
2022-08-12T00:06:24.946Z,60814.54
2022-08-12T00:07:28.115Z,60830.61
2022-08-12T00:08:37.127Z,60802.50
2022-08-12T00:09:36.936Z,60814.54
2022-08-12T00:10:39.706Z,60803.50
2022-08-12T00:11:43.102Z,60785.43
2022-08-12T00:12:46.179Z,60821.57
2022-08-12T00:13:49.246Z,60792.45
2022-08-12T00:14:51.920Z,60792.45
2022-08-12T00:15:55.202Z,60781.41
2022-08-12T00:16:58.076Z,60805.51
2022-08-12T00:18:01.462Z,60779.40
2022-08-12T00:19:04.655Z,60780.41
2022-08-12T00:20:07.420Z,60767.36
2022-08-12T00:21:10.394Z,60717.16
2022-08-12T00:22:13.164Z,60763.34
2022-08-12T00:23:16.048Z,60775.39
2022-08-12T00:24:18.810Z,60737.23
2022-08-12T00:25:21.480Z,60736.23
2022-08-12T00:26:25.687Z,60710.13
2022-08-12T00:27:43.313Z,60721.17
2022-08-12T00:28:32.765Z,60726.19
2022-08-12T00:29:35.438Z,60716.15
2022-08-12T00:30:38.104Z,60767.36
2022-08-12T00:31:40.769Z,60804.50
2022-08-12T00:32:47.664Z,60751.29
2022-08-12T00:33:52.266Z,60774.38
2022-08-12T00:34:52.011Z,60751.29
2022-08-12T00:35:54.729Z,60759.32
2022-08-12T00:37:07.253Z,60754.30
2022-08-12T00:38:03.355Z,60770.37
2022-08-12T00:39:06.229Z,60772.37
2022-08-12T00:40:11.241Z,60777.39
2022-08-12T00:41:13.617Z,60791.45
2022-08-12T00:42:16.590Z,60809.52
2022-08-12T00:43:19.566Z,60813.54
2022-08-12T00:44:22.842Z,60857.72
2022-08-12T00:45:27.370Z,60879.80
2022-08-12T00:46:30.436Z,60878.80
2022-08-12T00:47:33.107Z,60901.89
2022-08-12T00:48:35.784Z,60890.85
2022-08-12T00:49:38.448Z,60918.96
2022-08-12T00:50:41.115Z,60931.01
2022-08-12T00:51:43.900Z,60952.10
2022-08-12T00:52:47.480Z,60932.02
2022-08-12T00:53:50.466Z,60948.08
2022-08-12T00:54:53.233Z,60950.09
2022-08-12T00:55:56.100Z,60949.09
2022-08-12T00:56:58.780Z,60974.18
2022-08-12T00:58:01.443Z,60980.21
2022-08-12T00:59:04.219Z,60967.16
2022-08-12T01:00:06.987Z,60954.11
2022-08-12T01:01:09.839Z,61014.35
2022-08-12T01:02:12.870Z,61007.32
2022-08-12T01:03:15.818Z,61035.43
2022-08-12T01:04:18.513Z,61026.40
2022-08-12T01:05:21.157Z,60993.26
2022-08-12T01:06:24.132Z,61026.40
2022-08-12T01:07:27.066Z,61031.42
2022-08-12T01:08:29.779Z,61035.43
2022-08-12T01:09:32.469Z,61025.39
2022-08-12T01:10:35.014Z,61048.48
2022-08-12T01:11:37.888Z,61056.52
2022-08-12T01:12:41.242Z,61042.46
2022-08-12T01:13:43.943Z,61027.40
2022-08-12T01:14:46.831Z,61072.59
2022-08-12T01:15:49.675Z,61018.36
2022-08-12T01:16:53.494Z,60986.23
2022-08-12T01:17:56.367Z,61006.32
2022-08-12T01:18:59.233Z,61032.42
2022-08-12T01:20:02.022Z,60990.25
2022-08-12T01:21:05.087Z,60971.17
2022-08-12T01:22:08.279Z,60972.18
2022-08-12T01:23:11.149Z,60909.93
2022-08-12T01:24:30.442Z,60982.22
2022-08-12T01:25:19.057Z,60930.01
2022-08-12T01:26:22.026Z,60918.96
2022-08-12T01:27:25.002Z,60886.84
2022-08-12T01:28:27.875Z,60852.70
2022-08-12T01:29:32.842Z,60870.77
2022-08-12T01:30:34.758Z,60848.68
2022-08-12T01:31:37.728Z,60835.63
2022-08-12T01:32:40.576Z,60845.67
2022-08-12T01:33:43.475Z,60847.68
2022-08-12T01:34:46.456Z,60830.61
2022-08-12T01:36:07.938Z,60844.66
2022-08-12T01:36:53.633Z,60768.36
2022-08-12T01:37:56.408Z,60783.42
2022-08-12T01:38:59.396Z,60737.23
2022-08-12T01:40:35.754Z,60717.16
2022-08-12T01:41:06.988Z,60772.37
2022-08-12T01:42:10.488Z,60764.34
2022-08-12T01:43:13.472Z,60779.40
2022-08-12T01:44:16.331Z,60745.27
2022-08-12T01:45:21.355Z,60796.47
2022-08-12T01:46:24.338Z,60805.51
2022-08-12T01:47:27.708Z,60803.50
2022-08-12T01:48:30.816Z,60814.54
2022-08-12T01:49:34.380Z,60807.52
2022-08-12T01:50:37.669Z,60817.55
2022-08-12T01:52:20.574Z,60839.64
2022-08-12T01:52:45.581Z,60853.70
2022-08-12T01:53:50.867Z,60909.93
2022-08-12T01:54:53.467Z,60918.96
2022-08-12T01:55:56.648Z,60956.11
2022-08-12T01:56:59.745Z,61049.49
2022-08-12T01:58:02.602Z,61030.41
2022-08-12T01:59:05.899Z,61002.30
2022-08-12T02:00:10.724Z,61043.46
2022-08-12T02:01:13.762Z,61060.54
2022-08-12T02:02:16.798Z,61073.59
2022-08-12T02:03:19.787Z,61040.45
2022-08-12T02:04:22.921Z,61080.62
2022-08-12T02:05:26.624Z,61065.55
2022-08-12T02:06:30.008Z,61081.62
2022-08-12T02:07:32.875Z,61024.39
2022-08-12T02:08:35.855Z,61056.52
2022-08-12T02:09:38.624Z,61089.65
2022-08-12T02:10:49.093Z,61097.69
2022-08-12T02:11:45.810Z,61069.57
2022-08-12T02:12:48.781Z,61065.55
2022-08-12T02:13:51.918Z,61058.53
2022-08-12T02:14:54.737Z,61097.69
2022-08-12T02:15:57.832Z,61095.68
2022-08-12T02:17:00.895Z,61097.69
2022-08-12T02:18:03.881Z,61079.61
2022-08-12T02:19:13.100Z,61082.62
2022-08-12T02:20:11.484Z,61081.62
2022-08-12T02:21:14.033Z,61062.54
2022-08-12T02:22:16.726Z,61068.57
2022-08-12T02:23:19.792Z,61085.64
2022-08-12T02:24:22.554Z,61112.75
2022-08-12T02:25:27.061Z,61054.51
2022-08-12T02:26:29.938Z,61099.70
2022-08-12T02:27:33.220Z,61058.53
2022-08-12T02:28:36.013Z,61044.47
2022-08-12T02:29:38.777Z,61088.65
2022-08-12T02:30:42.406Z,61077.61
2022-08-12T02:31:45.266Z,61036.44
2022-08-12T02:32:47.903Z,61060.54
2022-08-12T02:33:50.886Z,61032.42
2022-08-12T02:34:53.567Z,61038.45
2022-08-12T02:35:56.533Z,60980.21
2022-08-12T02:37:02.580Z,61001.29
2022-08-12T02:38:04.022Z,60935.03
2022-08-12T02:39:06.895Z,60961.13
2022-08-12T02:40:09.673Z,60877.80
2022-08-12T02:41:14.174Z,60903.90
2022-08-12T02:42:17.150Z,60867.76
2022-08-12T02:43:20.242Z,60841.65
2022-08-12T02:44:23.311Z,60855.71
2022-08-12T02:45:26.290Z,60827.60
2022-08-12T02:46:29.575Z,60827.60
2022-08-12T02:47:58.893Z,60854.70
2022-08-12T02:48:36.863Z,60819.56
2022-08-12T02:49:39.547Z,60857.72
2022-08-12T02:50:42.110Z,60878.80
2022-08-12T02:51:46.608Z,60873.78
2022-08-12T02:52:49.381Z,60853.70
2022-08-12T02:54:04.513Z,60854.70
2022-08-12T02:54:56.265Z,60876.79
2022-08-12T02:55:58.937Z,60883.82
2022-08-12T02:57:01.705Z,60960.13
2022-08-12T02:58:09.126Z,60929.00
2022-08-12T02:59:08.571Z,60913.94
2022-08-12T03:00:11.355Z,60933.02
2022-08-12T03:01:14.183Z,60877.80
2022-08-12T03:02:16.996Z,60895.87
2022-08-12T03:03:19.772Z,60848.68
2022-08-12T03:04:22.639Z,60852.70
2022-08-12T03:05:25.243Z,60867.76
2022-08-12T03:06:28.182Z,60901.89
2022-08-12T03:07:55.759Z,60956.11
2022-08-12T03:08:35.577Z,60995.27
2022-08-12T03:09:59.345Z,61085.64
2022-08-12T03:10:43.269Z,61068.57
2022-08-12T03:11:48.728Z,61052.50
2022-08-12T03:12:52.061Z,61010.33
2022-08-12T03:13:55.272Z,61040.45
2022-08-12T03:14:58.265Z,61026.40
2022-08-12T03:16:01.336Z,61035.43
2022-08-12T03:17:04.208Z,61008.32
2022-08-12T03:18:27.111Z,61016.36
2022-08-12T03:19:11.498Z,61020.37
2022-08-12T03:20:14.170Z,60992.26
2022-08-12T03:21:17.239Z,60962.14
2022-08-12T03:22:21.544Z,60986.23
2022-08-12T03:23:28.870Z,60934.02
2022-08-12T03:24:28.738Z,60987.24
2022-08-12T03:25:31.500Z,60984.23
2022-08-12T03:26:34.368Z,61004.30
2022-08-12T03:27:37.044Z,61005.31
2022-08-12T03:28:39.921Z,61035.43
2022-08-12T03:29:43.397Z,61033.43
2022-08-12T03:30:47.004Z,61027.40
2022-08-12T03:31:49.670Z,61017.36
2022-08-12T03:32:52.801Z,61051.50
2022-08-12T03:34:01.604Z,61045.47
2022-08-12T03:35:00.141Z,61026.40
2022-08-12T03:36:02.916Z,61052.50
2022-08-12T03:37:05.788Z,61083.63
2022-08-12T03:38:08.823Z,61086.64
2022-08-12T03:39:13.239Z,61076.60
2022-08-12T03:40:16.211Z,61079.61
2022-08-12T03:41:19.118Z,61078.61
2022-08-12T03:42:22.024Z,61062.54
2022-08-12T03:43:25.377Z,61073.59
2022-08-12T03:44:28.580Z,61075.60
2022-08-12T03:45:31.543Z,61067.56
2022-08-12T03:46:34.529Z,61081.62
2022-08-12T03:47:37.304Z,61049.49
2022-08-12T03:48:40.056Z,61079.61
2022-08-12T03:49:42.943Z,61041.46
2022-08-12T03:50:45.815Z,61043.46
2022-08-12T03:51:48.389Z,61055.52
2022-08-12T03:52:52.596Z,61027.40
2022-08-12T03:53:55.571Z,61012.34
2022-08-12T03:54:58.552Z,60973.18
2022-08-12T03:56:01.530Z,60997.28
2022-08-12T03:57:04.405Z,60962.14
2022-08-12T03:58:07.174Z,60937.04
2022-08-12T03:59:09.960Z,60930.01
2022-08-12T04:00:24.154Z,60878.80
2022-08-12T04:01:17.488Z,60885.83
2022-08-12T04:02:20.301Z,60859.73
2022-08-12T04:03:23.180Z,60903.90
2022-08-12T04:04:25.858Z,60901.89
2022-08-12T04:05:54.561Z,60909.93
2022-08-12T04:06:34.863Z,60950.09
2022-08-12T04:07:37.131Z,60981.21
2022-08-12T04:08:41.238Z,60976.20
2022-08-12T04:09:43.915Z,61002.30
2022-08-12T04:10:46.688Z,61025.39
2022-08-12T04:11:49.354Z,61017.36
2022-08-12T04:12:52.122Z,61082.62
2022-08-12T04:13:54.925Z,61069.57
2022-08-12T04:14:57.672Z,61041.46
2022-08-12T04:16:00.353Z,61011.34
2022-08-12T04:17:03.207Z,61018.36
2022-08-12T04:18:08.019Z,60961.13
2022-08-12T04:19:10.601Z,60897.88
2022-08-12T04:20:13.683Z,60872.78
2022-08-12T04:21:16.657Z,60934.02
2022-08-12T04:22:19.429Z,60841.65
2022-08-12T04:23:22.520Z,60874.79
2022-08-12T04:24:25.383Z,60885.83
2022-08-12T04:25:28.048Z,60941.05
2022-08-12T04:26:32.873Z,60978.20
2022-08-12T04:27:35.538Z,60982.22
2022-08-12T04:28:38.324Z,61030.41
2022-08-12T04:30:29.000Z,61052.50
2022-08-12T04:30:45.188Z,61078.61
2022-08-12T04:31:47.966Z,61108.73
2022-08-12T04:32:50.854Z,61124.80
2022-08-12T04:33:53.609Z,61135.84
2022-08-12T04:34:56.286Z,61145.88
2022-08-12T04:35:58.950Z,61130.82
2022-08-12T04:37:02.135Z,61132.83
2022-08-12T04:38:04.800Z,61134.84
2022-08-12T04:39:07.672Z,61151.91
2022-08-12T04:40:10.344Z,61160.95
2022-08-12T04:41:13.109Z,61166.97
2022-08-12T04:42:15.785Z,61112.75
2022-08-12T04:43:59.853Z,61132.83
2022-08-12T04:44:22.876Z,61117.77
2022-08-12T04:45:25.536Z,61131.82
2022-08-12T04:46:33.619Z,61101.70
2022-08-12T04:47:32.722Z,61142.87
2022-08-12T04:48:35.497Z,61128.81
2022-08-12T04:49:38.059Z,61136.84
2022-08-12T04:50:40.831Z,61138.85
2022-08-12T04:51:43.605Z,61131.82
2022-08-12T04:52:48.008Z,61133.83
2022-08-12T04:53:50.685Z,61158.94
2022-08-12T04:54:53.350Z,61158.94
2022-08-12T04:55:57.160Z,61164.96
2022-08-12T04:57:03.756Z,61181.03
2022-08-12T04:58:04.441Z,61107.73
2022-08-12T04:59:07.225Z,61126.80
2022-08-12T05:00:10.077Z,61104.71
2022-08-12T05:01:13.066Z,61139.86
2022-08-12T05:02:16.746Z,61134.84
2022-08-12T05:03:20.558Z,61100.70
2022-08-12T05:04:23.328Z,61098.69
2022-08-12T05:05:26.401Z,61108.73
2022-08-12T05:06:29.270Z,61123.79
2022-08-12T05:07:32.249Z,61137.85
2022-08-12T05:08:35.245Z,61124.80
2022-08-12T05:10:00.284Z,61122.79
2022-08-12T05:10:42.001Z,61175.00
2022-08-12T05:11:53.827Z,61168.98
2022-08-12T05:12:49.083Z,61150.90
2022-08-12T05:13:51.860Z,61143.87
2022-08-12T05:14:54.736Z,61147.89
2022-08-12T05:16:04.432Z,61128.81
2022-08-12T05:17:01.617Z,61098.69
2022-08-12T05:18:20.324Z,61076.60
2022-08-12T05:19:12.924Z,61105.72
2022-08-12T05:20:14.330Z,61157.93
2022-08-12T05:21:17.203Z,61133.83
2022-08-12T05:22:19.872Z,61164.96
2022-08-12T05:23:22.649Z,61118.77
2022-08-12T05:24:25.309Z,61115.76
2022-08-12T05:25:28.093Z,61112.75
2022-08-12T05:26:30.963Z,61088.65
2022-08-12T05:27:33.732Z,61051.50
2022-08-12T05:28:36.498Z,61051.50
2022-08-12T05:30:06.758Z,61037.44
2022-08-12T05:30:43.586Z,61047.48
2022-08-12T05:31:48.424Z,61034.43
2022-08-12T05:32:50.785Z,61012.34
2022-08-12T05:33:54.867Z,61037.44
2022-08-12T05:34:58.260Z,61049.49
2022-08-12T05:36:01.134Z,61042.46
2022-08-12T05:37:04.112Z,61067.56
2022-08-12T05:38:07.093Z,61110.74
2022-08-12T05:39:10.437Z,61043.46
2022-08-12T05:40:13.953Z,61069.57
2022-08-12T05:41:17.253Z,61074.59
2022-08-12T05:42:20.630Z,61099.70
2022-08-12T05:43:25.547Z,61108.73
2022-08-12T05:44:28.728Z,61092.66
2022-08-12T05:45:31.830Z,61098.69
2022-08-12T05:46:34.695Z,61089.65
2022-08-12T05:47:53.015Z,61066.56
2022-08-12T05:48:41.778Z,61052.50
2022-08-12T05:49:44.342Z,61044.47
2022-08-12T05:50:47.209Z,61038.45
2022-08-12T05:51:49.993Z,61037.44
2022-08-12T05:52:53.039Z,61067.56
2022-08-12T05:53:57.071Z,61025.39
2022-08-12T05:55:00.862Z,61024.39
2022-08-12T05:56:04.154Z,60993.26
2022-08-12T05:57:07.029Z,60989.25
2022-08-12T05:58:09.605Z,60958.12
2022-08-12T05:59:12.605Z,60943.06
2022-08-12T06:00:15.341Z,60978.20
2022-08-12T06:02:12.737Z,60966.15
2022-08-12T06:02:31.278Z,58507.98
2022-08-12T06:03:34.048Z,60946.07
2022-08-12T06:04:36.776Z,60950.09
2022-08-12T06:05:54.275Z,60899.89
2022-08-12T06:06:43.867Z,60920.97
2022-08-12T06:08:01.131Z,60859.73
2022-08-12T06:08:50.834Z,60897.88
2022-08-12T06:09:53.608Z,60884.82
2022-08-12T06:10:56.475Z,60900.89
2022-08-12T06:12:05.021Z,60893.86
2022-08-12T06:13:04.271Z,60889.85
2022-08-12T06:14:11.680Z,60863.74
2022-08-12T06:15:11.459Z,60826.59
2022-08-12T06:16:14.537Z,60858.72
2022-08-12T06:17:17.410Z,60831.61
2022-08-12T06:18:20.607Z,60830.61
2022-08-12T06:19:23.474Z,60825.59
2022-08-12T06:20:33.526Z,60799.48
2022-08-12T06:21:31.886Z,60816.55
2022-08-12T06:22:34.867Z,60835.63
2022-08-12T06:23:42.325Z,60805.51
2022-08-12T06:24:42.229Z,60817.55
2022-08-12T06:25:45.415Z,60835.63
2022-08-12T06:26:48.288Z,60797.48
2022-08-12T06:28:07.962Z,60849.68
2022-08-12T06:28:55.883Z,60823.58
2022-08-12T06:30:06.838Z,60852.70
2022-08-12T06:32:08.399Z,60815.55
2022-08-12T06:33:22.350Z,60780.41
2022-08-12T06:35:25.527Z,60834.63
2022-08-12T06:35:26.382Z,60824.58
2022-08-12T06:36:29.520Z,60807.52
2022-08-12T06:37:31.575Z,60809.52
2022-08-12T06:38:34.342Z,60807.52
2022-08-12T06:39:37.609Z,60830.61
2022-08-12T06:40:40.911Z,60815.55
2022-08-12T06:42:02.511Z,60832.62
2022-08-12T06:42:48.617Z,60784.42
2022-08-12T06:44:06.431Z,60802.50
2022-08-12T06:44:55.923Z,60825.59
2022-08-12T06:45:58.588Z,60817.55
2022-08-12T06:47:01.262Z,60816.55
2022-08-12T06:48:03.924Z,60799.48
2022-08-12T06:49:06.616Z,60791.45
2022-08-12T06:50:09.364Z,60801.49
2022-08-12T06:51:12.035Z,60741.25
2022-08-12T06:52:14.807Z,60783.42
2022-08-12T06:53:17.371Z,60724.18
2022-08-12T06:54:29.830Z,60696.07
2022-08-12T06:55:24.775Z,60703.10
2022-08-12T06:58:06.551Z,60667.96
2022-08-12T06:58:50.282Z,60664.95
2022-08-12T06:59:52.963Z,60610.73
2022-08-12T07:00:55.787Z,60588.65
2022-08-12T07:01:58.493Z,60542.46
2022-08-12T07:03:01.282Z,60492.27
2022-08-12T07:04:33.327Z,60449.10
2022-08-12T07:05:09.674Z,60374.81
2022-08-12T07:06:12.964Z,60290.48
2022-08-12T07:07:15.650Z,60223.22
2022-08-12T07:08:18.310Z,60181.06
2022-08-12T07:10:04.628Z,60116.81
2022-08-12T07:10:25.358Z,60077.66
2022-08-12T07:11:28.257Z,60086.70
2022-08-12T07:12:31.136Z,60040.52
2022-08-12T07:13:33.802Z,60000.37
2022-08-12T07:14:40.681Z,59981.30
2022-08-12T07:15:40.673Z,59986.32
2022-08-12T07:16:43.655Z,59964.23
2022-08-12T07:17:46.328Z,59941.15
2022-08-12T07:18:50.540Z,59943.15
2022-08-12T07:19:53.194Z,59921.07
2022-08-12T07:20:55.865Z,59899.99
2022-08-12T07:22:02.050Z,59898.99
2022-08-12T07:23:02.953Z,59906.01
2022-08-12T07:24:05.610Z,59895.97
2022-08-12T07:25:08.397Z,59905.01
2022-08-12T07:26:11.063Z,59887.95
2022-08-12T07:27:15.576Z,59861.85
2022-08-12T07:28:18.351Z,59861.85
2022-08-12T07:29:21.117Z,59889.95
2022-08-12T07:30:24.285Z,59851.81
2022-08-12T07:31:27.086Z,59848.80
2022-08-12T07:32:29.841Z,59875.90
2022-08-12T07:33:32.633Z,59857.83
2022-08-12T07:34:35.393Z,59866.87
2022-08-12T07:35:37.964Z,59842.77
2022-08-12T07:36:40.529Z,59861.85
2022-08-12T07:37:43.304Z,59859.84
2022-08-12T07:38:45.966Z,59861.85
2022-08-12T07:39:50.811Z,59844.78
2022-08-12T07:40:52.645Z,59861.85
2022-08-12T07:41:55.348Z,59865.86
2022-08-12T07:42:58.013Z,59863.86
2022-08-12T07:44:04.546Z,59855.82
2022-08-12T07:45:04.749Z,59849.80
2022-08-12T07:46:07.521Z,59840.77
2022-08-12T07:47:10.290Z,59843.78
2022-08-12T07:48:14.601Z,59851.81
2022-08-12T07:49:17.373Z,59830.73
2022-08-12T07:50:23.785Z,59807.64
2022-08-12T07:51:25.438Z,59796.60
2022-08-12T07:52:28.454Z,59844.78
2022-08-12T07:53:31.235Z,59813.66
2022-08-12T07:54:34.006Z,59831.73
2022-08-12T07:55:36.786Z,59831.73
2022-08-12T07:56:39.543Z,59805.64
2022-08-12T07:57:42.323Z,59811.66
2022-08-12T07:58:47.145Z,59812.66
2022-08-12T07:59:50.168Z,59819.69
2022-08-12T08:00:53.499Z,59827.72
2022-08-12T08:01:56.244Z,59777.53
2022-08-12T08:02:59.640Z,59802.62
2022-08-12T08:04:02.720Z,59805.64
2022-08-12T08:05:05.593Z,59808.65
2022-08-12T08:06:08.570Z,59789.57
2022-08-12T08:07:12.980Z,59759.46
2022-08-12T08:08:15.860Z,59779.54
2022-08-12T08:09:18.939Z,59789.57
2022-08-12T08:10:22.017Z,59738.38
2022-08-12T08:11:25.294Z,59717.30
2022-08-12T08:12:28.380Z,59716.30
2022-08-12T08:13:31.862Z,59717.30
2022-08-12T08:14:34.979Z,59733.37
2022-08-12T08:16:02.879Z,59712.29
2022-08-12T08:16:42.026Z,59739.39
2022-08-12T08:17:45.009Z,59703.25
2022-08-12T08:18:48.289Z,59695.22
2022-08-12T08:20:04.102Z,59711.28
2022-08-12T08:20:55.886Z,59654.07
2022-08-12T08:21:58.804Z,59657.08
2022-08-12T08:23:01.936Z,59681.17
2022-08-12T08:24:05.463Z,59649.05
2022-08-12T08:25:20.438Z,59650.05
2022-08-12T08:26:12.921Z,59640.02
2022-08-12T08:27:16.005Z,59672.14
2022-08-12T08:28:18.888Z,59652.06
2022-08-12T08:29:21.846Z,59639.02
2022-08-12T08:30:24.938Z,59647.04
2022-08-12T08:31:27.800Z,59656.08
2022-08-12T08:32:30.788Z,59641.02
2022-08-12T08:34:09.502Z,59617.94
2022-08-12T08:34:54.698Z,59592.84
2022-08-12T08:35:46.438Z,59645.04
2022-08-12T08:36:46.885Z,59650.05
2022-08-12T08:37:51.191Z,59622.95
2022-08-12T08:38:58.135Z,59596.86
2022-08-12T08:39:58.685Z,59602.88
2022-08-12T08:41:01.966Z,59555.71
2022-08-12T08:42:17.945Z,59567.75
2022-08-12T08:43:09.657Z,59561.73
2022-08-12T08:44:12.754Z,59559.72
2022-08-12T08:45:15.827Z,59554.70
2022-08-12T08:46:19.119Z,59553.70
2022-08-12T08:47:22.084Z,59537.64
2022-08-12T08:48:25.261Z,59495.48
2022-08-12T08:49:28.348Z,59491.47
2022-08-12T08:50:31.521Z,59464.37
2022-08-12T08:51:34.605Z,59506.53
2022-08-12T08:52:40.064Z,59463.37
2022-08-12T08:53:41.992Z,59444.30
2022-08-12T08:54:46.621Z,59426.23
2022-08-12T08:56:04.588Z,59397.12
2022-08-12T08:56:53.997Z,59398.13
2022-08-12T08:57:56.971Z,59378.05
2022-08-12T08:59:01.070Z,59296.76
2022-08-12T09:00:04.049Z,59351.96
2022-08-12T09:01:06.723Z,59359.99
2022-08-12T09:02:09.755Z,59319.84
2022-08-12T09:05:07.020Z,59314.83
2022-08-12T09:05:10.073Z,59325.87
2022-08-12T09:05:25.432Z,59335.90
2022-08-12T09:06:37.501Z,59311.82
2022-08-12T09:07:58.973Z,59251.60
2022-08-12T09:08:35.032Z,59287.73
2022-08-12T09:10:02.244Z,59280.70
2022-08-12T09:10:45.194Z,59258.62
2022-08-12T09:12:07.110Z,59215.47
2022-08-12T09:12:54.950Z,59251.60
2022-08-12T09:15:00.070Z,59208.45
2022-08-12T09:16:02.731Z,59198.41
2022-08-12T09:17:06.223Z,59192.39
2022-08-12T09:18:09.507Z,59182.35
2022-08-12T09:19:26.911Z,59164.29
2022-08-12T09:20:16.489Z,59161.27
2022-08-12T09:21:19.361Z,59127.15
2022-08-12T09:22:22.443Z,59117.12
2022-08-12T09:23:58.325Z,59085.00
2022-08-12T09:24:31.894Z,59101.06
2022-08-12T09:25:35.061Z,59068.94
2022-08-12T09:26:46.319Z,59089.02
2022-08-12T09:28:18.169Z,59049.87
2022-08-12T09:30:10.897Z,59017.76
2022-08-12T09:30:57.193Z,58982.64
2022-08-12T09:32:07.413Z,59008.73
2022-08-12T09:33:14.448Z,58957.55
2022-08-12T09:34:29.456Z,58957.55
2022-08-12T09:35:22.088Z,58944.50
2022-08-12T09:36:30.611Z,58910.38
2022-08-12T09:37:22.580Z,58932.46
2022-08-12T09:38:29.096Z,58875.26
2022-08-12T09:40:05.969Z,58876.26
2022-08-12T09:40:57.611Z,58846.16
2022-08-12T09:42:09.477Z,58817.05
2022-08-12T09:42:54.207Z,58775.91
2022-08-12T09:43:53.990Z,58733.76
2022-08-12T09:45:18.510Z,58724.73
2022-08-12T09:46:06.630Z,58691.62
2022-08-12T09:47:01.633Z,58692.62
2022-08-12T09:48:06.242Z,58641.45
2022-08-12T09:50:27.680Z,58567.19
2022-08-12T09:51:37.676Z,58535.08
2022-08-12T09:52:34.836Z,58493.94
2022-08-12T09:53:40.030Z,58466.84
2022-08-12T09:54:43.279Z,58364.50
2022-08-12T09:55:57.313Z,58378.54
2022-08-12T09:57:02.725Z,58347.44
2022-08-12T09:58:44.983Z,58309.31
2022-08-12T09:59:02.334Z,58308.31
2022-08-12T10:00:16.083Z,58239.07
2022-08-12T10:01:15.442Z,58220.01
2022-08-12T10:02:44.629Z,58164.82
2022-08-12T10:03:32.648Z,58117.67
2022-08-12T10:04:23.225Z,58154.79
2022-08-12T10:06:19.663Z,58080.54
2022-08-12T10:06:32.364Z,58042.42
2022-08-12T10:07:39.912Z,57987.24
2022-08-12T10:08:39.370Z,57963.16
2022-08-12T10:09:57.589Z,57945.10
2022-08-12T10:10:46.348Z,57901.96
2022-08-12T10:12:11.840Z,57897.95
2022-08-12T10:13:07.058Z,57883.90
2022-08-12T10:13:59.378Z,57768.52
2022-08-12T10:15:02.525Z,57759.50
2022-08-12T10:16:06.054Z,57728.39
2022-08-12T10:17:09.393Z,57684.25
2022-08-12T10:18:13.548Z,57696.29
2022-08-12T10:19:17.693Z,57650.14
2022-08-12T10:20:20.611Z,57650.14
2022-08-12T10:21:23.729Z,57579.92
2022-08-12T10:22:39.307Z,57556.84
2022-08-12T10:23:40.212Z,57499.66
2022-08-12T10:24:35.690Z,57468.57
2022-08-12T10:26:34.058Z,57453.52
2022-08-12T10:26:42.885Z,57361.23
2022-08-12T10:28:03.431Z,57326.12
2022-08-12T10:29:02.595Z,57260.91
2022-08-12T10:30:37.236Z,57198.72
2022-08-12T10:31:01.599Z,57193.70
2022-08-12T10:32:21.723Z,57116.47
2022-08-12T10:33:18.173Z,57076.34
2022-08-12T10:34:24.006Z,57066.31
2022-08-12T10:35:18.579Z,57029.20
2022-08-12T10:36:21.456Z,56982.05
2022-08-12T10:38:36.088Z,56895.79
2022-08-12T10:38:37.134Z,56948.96
2022-08-12T10:40:01.114Z,56898.80
2022-08-12T10:40:39.301Z,56863.70
2022-08-12T10:41:58.075Z,56808.53
2022-08-12T10:42:46.490Z,56770.42
2022-08-12T10:43:55.635Z,56741.33
2022-08-12T10:44:54.074Z,56667.11
2022-08-12T10:45:58.211Z,56649.06
2022-08-12T10:47:01.178Z,56604.93
2022-08-12T10:48:23.108Z,56546.76
2022-08-12T10:50:03.422Z,56515.67
2022-08-12T10:50:35.462Z,56472.54
2022-08-12T10:52:05.423Z,56428.41
2022-08-12T10:52:34.470Z,56326.12
2022-08-12T10:53:43.728Z,56237.86
2022-08-12T10:54:29.976Z,56081.42
2022-08-12T10:55:32.848Z,56049.33
2022-08-12T10:56:37.466Z,55918.97
2022-08-12T10:58:15.374Z,55880.86
2022-08-12T10:58:47.737Z,55793.62
2022-08-12T11:00:34.305Z,55714.41
2022-08-12T11:01:50.182Z,54929.35
2022-08-12T11:04:24.604Z,54856.16
2022-08-12T11:04:25.348Z,54889.25
2022-08-12T11:04:31.296Z,54810.05
2022-08-12T11:07:05.151Z,54827.09
2022-08-12T11:07:07.812Z,54785.99
2022-08-12T11:08:35.127Z,54755.91
2022-08-12T11:08:38.249Z,54806.04
2022-08-12T11:09:56.050Z,54768.95
2022-08-12T11:10:40.580Z,54723.84
2022-08-12T11:12:34.547Z,54705.79
2022-08-12T11:12:59.306Z,54719.83
2022-08-12T11:13:52.550Z,54723.84
2022-08-12T11:14:55.315Z,54722.83
2022-08-12T11:16:19.856Z,54692.76
2022-08-12T11:17:34.693Z,54664.69
2022-08-12T11:18:19.193Z,54649.65
2022-08-12T11:19:22.517Z,54695.77
2022-08-12T11:20:30.877Z,54625.59
2022-08-12T11:21:56.326Z,54648.65
2022-08-12T11:22:34.319Z,54641.63
2022-08-12T11:23:37.771Z,54614.57
2022-08-12T11:24:40.437Z,54584.50
2022-08-12T11:25:57.701Z,54591.51
2022-08-12T11:26:49.205Z,54603.54
2022-08-12T11:27:52.131Z,54577.48
2022-08-12T11:28:59.234Z,54584.50
2022-08-12T11:30:05.623Z,54536.38
2022-08-12T11:31:03.627Z,54569.46
2022-08-12T11:32:06.501Z,54541.39
2022-08-12T11:33:11.941Z,54518.34
2022-08-12T11:34:51.505Z,54527.36
2022-08-12T11:35:18.191Z,54512.32
2022-08-12T11:36:21.771Z,54535.37
2022-08-12T11:37:26.438Z,54579.48
2022-08-12T11:38:29.550Z,54507.31
2022-08-12T11:40:36.730Z,54528.36
2022-08-12T11:41:43.124Z,54509.31
2022-08-12T11:42:46.347Z,54492.27
2022-08-12T11:43:50.766Z,54545.40
2022-08-12T11:44:54.071Z,54522.34
2022-08-12T11:45:56.901Z,54503.30
2022-08-12T11:46:59.615Z,54493.27
2022-08-12T11:48:02.592Z,54503.30
2022-08-12T11:49:05.363Z,54503.30
2022-08-12T11:50:08.243Z,54473.23
2022-08-12T11:51:12.650Z,54514.32
2022-08-12T11:52:17.230Z,54463.20
2022-08-12T11:53:56.596Z,54458.19
2022-08-12T11:54:25.071Z,54435.13
2022-08-12T11:55:29.505Z,54457.19
2022-08-12T11:56:38.550Z,54472.22
2022-08-12T11:58:18.384Z,54418.09
2022-08-12T12:02:02.558Z,54407.07
2022-08-12T12:02:58.693Z,54418.09
2022-08-12T12:04:01.490Z,54395.04
2022-08-12T12:05:04.978Z,54411.07
2022-08-12T12:06:08.466Z,54435.13
2022-08-12T12:07:11.954Z,54397.04
2022-08-12T12:08:40.523Z,54399.05
2022-08-12T12:09:21.187Z,54371.98
2022-08-12T12:10:25.600Z,54407.07
2022-08-12T12:11:49.162Z,54409.07
2022-08-12T12:12:34.319Z,54399.05
2022-08-12T12:14:08.101Z,54384.01
2022-08-12T12:14:42.325Z,54388.02
2022-08-12T12:15:47.382Z,54377.00
2022-08-12T12:16:50.927Z,54377.00
2022-08-12T12:17:55.071Z,54355.95
2022-08-12T12:18:57.919Z,54339.91
2022-08-12T12:20:00.790Z,54340.91
2022-08-12T12:21:03.969Z,54351.93
2022-08-12T12:22:06.748Z,54335.90
2022-08-12T12:23:28.684Z,54358.95
2022-08-12T12:24:14.141Z,54356.95
2022-08-12T12:25:19.824Z,54355.95
2022-08-12T12:26:34.877Z,54338.91
2022-08-12T12:27:39.360Z,54354.94
2022-08-12T12:28:38.061Z,54354.94
2022-08-12T12:30:18.523Z,54350.93
2022-08-12T12:30:41.015Z,54330.89
2022-08-12T12:32:10.988Z,54320.86
2022-08-12T12:32:53.427Z,54304.82
2022-08-12T12:33:57.205Z,54275.75
2022-08-12T12:35:13.958Z,54306.83